Time;durP1;ratioP1;P1;durP2;ratioP2;P2;SDS_P1;SDS_P2;PMS_P1;PMS_P2;Temp;Humidity;BMP_temperature;BMP_pressure;BME280_temperature;BME280_humidity;BME280_pressure;Samples;Min_cycle;Max_cycle;Signal;HPM_P1;HPM_P2
2022/10/23 00:00:40;;;;;;;6.97;3.67;;;;;;;13.72;80.20;99931.47;1089531;46;20042;-81
2022/10/23 00:01:44;;;;;;;6.43;3.95;;;;;;;13.73;80.22;99936.69;1088512;46;20077;-79
2022/10/23 00:02:53;;;;;;;6.55;3.53;;;;;;;13.70;80.25;99933.50;1087735;54;20042;-79
2022/10/23 00:03:56;;;;;;;7.10;3.43;;;;;;;13.64;80.36;99928.78;1087982;47;20048;-78
2022/10/23 00:05:02;;;;;;;7.78;4.10;;;;;;;13.64;79.97;99932.34;1087934;54;20264;-79
2022/10/23 00:06:03;;;;;;;7.32;3.80;;;;;;;13.63;80.29;99927.97;1088006;54;20216;-80
2022/10/23 00:07:07;;;;;;;8.05;4.00;;;;;;;13.59;80.14;99923.09;1088130;46;20018;-78
2022/10/23 00:08:09;;;;;;;8.38;3.97;;;;;;;13.55;80.23;99925.28;1088169;47;20015;-79
2022/10/23 00:09:15;;;;;;;10.57;4.00;;;;;;;13.56;80.20;99927.78;1087914;54;20094;-78
2022/10/23 00:10:21;;;;;;;9.32;4.22;;;;;;;13.53;80.27;99920.06;1087810;54;20765;-79
2022/10/23 00:11:27;;;;;;;6.53;3.67;;;;;;;13.50;80.74;99915.03;1087221;54;20030;-78
2022/10/23 00:12:28;;;;;;;7.22;3.88;;;;;;;13.46;80.64;99913.69;1087471;54;20030;-79
2022/10/23 00:13:33;;;;;;;9.38;4.28;;;;;;;13.44;80.92;99915.69;1089692;39;21000;-80
2022/10/23 00:14:34;;;;;;;9.20;4.57;;;;;;;13.31;81.28;99912.66;1086553;54;20050;-80
2022/10/23 00:15:38;;;;;;;8.60;4.75;;;;;;;13.24;81.86;99912.47;1087966;39;20437;-79
2022/10/23 00:16:40;;;;;;;9.25;3.85;;;;;;;13.22;81.76;99920.69;1086506;54;20046;-79
2022/10/23 00:17:44;;;;;;;9.20;4.50;;;;;;;13.21;81.81;99921.69;1086953;54;20102;-77
2022/10/23 00:18:46;;;;;;;8.73;4.47;;;;;;;13.13;82.01;99913.59;1086860;46;20043;-79
2022/10/23 00:19:50;;;;;;;7.15;3.88;;;;;;;13.14;82.00;99917.13;1086753;54;20126;-80
2022/10/23 00:20:51;;;;;;;6.15;3.88;;;;;;;13.16;81.81;99909.78;1086666;54;20042;-78
2022/10/23 00:21:55;;;;;;;7.32;3.72;;;;;;;13.19;81.94;99923.69;1086755;54;20034;-79
2022/10/23 00:22:57;;;;;;;6.05;3.75;;;;;;;13.23;81.96;99916.97;1086048;54;20058;-78
2022/10/23 00:24:01;;;;;;;6.50;3.90;;;;;;;13.26;81.73;99921.19;1086284;54;20038;-79
2022/10/23 00:25:03;;;;;;;6.65;3.72;;;;;;;13.27;81.52;99912.16;1090182;39;21002;-79
2022/10/23 00:26:14;;;;;;;6.05;3.55;;;;;;;13.29;81.18;99910.09;1087287;54;20042;-80
2022/10/23 00:27:15;;;;;;;6.15;3.40;;;;;;;13.29;81.26;99914.66;1087218;54;20058;-79
2022/10/23 00:28:20;;;;;;;6.78;3.53;;;;;;;13.30;81.41;99909.09;1087164;54;20046;-79
2022/10/23 00:29:21;;;;;;;6.22;3.53;;;;;;;13.25;81.26;99904.22;1087143;54;20057;-79
2022/10/23 00:30:25;;;;;;;6.45;3.80;;;;;;;13.25;81.51;99906.09;1087064;54;20014;-80
2022/10/23 00:31:27;;;;;;;8.73;4.32;;;;;;;13.21;81.33;99910.09;1087209;54;20098;-79
2022/10/23 00:32:31;;;;;;;7.55;3.97;;;;;;;13.09;81.72;99899.66;1089286;46;20056;-79
2022/10/23 00:33:32;;;;;;;7.88;3.53;;;;;;;12.94;82.27;99904.84;1087187;54;20046;-78
2022/10/23 00:34:37;;;;;;;9.93;4.00;;;;;;;12.85;82.55;99900.44;1086175;54;20038;-79
2022/10/23 00:35:39;;;;;;;9.18;4.28;;;;;;;12.84;82.43;99904.16;1086000;54;20065;-80
2022/10/23 00:36:43;;;;;;;6.95;3.53;;;;;;;12.84;82.39;99903.31;1085816;54;20041;-80
2022/10/23 00:37:44;;;;;;;7.80;3.60;;;;;;;12.85;82.41;99903.13;1086181;54;20592;-80
2022/10/23 00:38:50;;;;;;;8.02;3.45;;;;;;;12.85;82.28;99905.81;1085931;54;20039;-80
2022/10/23 00:39:52;;;;;;;7.65;3.88;;;;;;;12.80;82.42;99892.91;1086648;54;20093;-79
2022/10/23 00:40:56;;;;;;;8.23;3.83;;;;;;;12.89;82.44;99892.94;1087006;54;20053;-80
2022/10/23 00:42:00;;;;;;;5.15;3.15;;;;;;;12.96;81.99;99902.00;1087250;47;20046;-79
2022/10/23 00:43:05;;;;;;;5.75;3.15;;;;;;;12.97;81.80;99902.84;1087283;47;20034;-79
2022/10/23 00:44:09;;;;;;;6.85;3.20;;;;;;;12.97;81.69;99897.47;1087480;54;20054;-80
2022/10/23 00:45:24;;;;;;;6.50;3.47;;;;;;;12.97;81.67;99894.78;1087591;54;20038;-80
2022/10/23 00:46:26;;;;;;;5.65;3.05;;;;;;;12.97;81.66;99898.31;1088463;46;20054;-80
2022/10/23 00:47:31;;;;;;;5.95;3.20;;;;;;;12.99;81.67;99898.97;1088117;46;20041;-80
2022/10/23 00:48:33;;;;;;;7.65;3.78;;;;;;;13.02;81.51;99890.59;1087700;54;20047;-80
2022/10/23 00:49:37;;;;;;;5.93;3.33;;;;;;;13.04;81.25;99890.44;1087672;54;20038;-80
2022/10/23 00:50:40;;;;;;;6.13;2.90;;;;;;;13.03;81.21;99894.16;1088368;46;20026;-80
2022/10/23 00:51:57;;;;;;;7.20;3.13;;;;;;;12.98;81.04;99893.78;1088346;46;20030;-80
2022/10/23 00:53:02;;;;;;;8.98;3.42;;;;;;;12.99;81.36;99887.41;1087590;54;20030;-79
2022/10/23 00:54:06;;;;;;;6.78;2.90;;;;;;;12.99;81.24;99887.41;1088516;46;20030;-79
2022/10/23 00:55:08;;;;;;;5.72;3.00;;;;;;;12.99;81.42;99885.56;1087924;54;20050;-80
2022/10/23 00:56:13;;;;;;;5.57;3.40;;;;;;;12.92;81.56;99882.72;1087083;46;20034;-79
2022/10/23 00:57:17;;;;;;;7.93;3.47;;;;;;;12.97;81.55;99886.75;1086790;54;20061;-78
2022/10/23 00:58:33;;;;;;;7.68;3.45;;;;;;;12.96;81.36;99888.59;1086463;54;20195;-78
2022/10/23 00:59:35;;;;;;;7.25;2.95;;;;;;;13.00;81.34;99883.72;1086177;54;20030;-78
2022/10/23 01:00:49;;;;;;;4.85;2.95;;;;;;;13.00;80.91;99881.06;1086047;54;20053;-79
2022/10/23 01:01:50;;;;;;;7.13;3.15;;;;;;;13.02;80.81;99882.56;1086302;54;20046;-78
2022/10/23 01:02:56;;;;;;;7.43;3.63;;;;;;;12.97;81.08;99884.06;1085973;54;20039;-79
2022/10/23 01:03:57;;;;;;;5.63;2.88;;;;;;;12.99;81.08;99882.88;1086237;54;20039;-79
2022/10/23 01:05:02;;;;;;;6.50;2.80;;;;;;;12.91;81.15;99881.03;1086076;54;20157;-79
2022/10/23 01:06:12;;;;;;;7.18;3.53;;;;;;;12.94;80.99;99886.06;1086039;54;20050;-79
2022/10/23 01:07:21;;;;;;;4.63;2.53;;;;;;;12.97;80.92;99890.28;1086872;39;20477;-79
2022/10/23 01:08:31;;;;;;;7.07;2.88;;;;;;;12.92;80.99;99887.22;1086168;54;20049;-78
2022/10/23 01:09:40;;;;;;;6.57;3.15;;;;;;;12.86;81.16;99887.91;1086024;54;20050;-79
2022/10/23 01:10:46;;;;;;;9.77;2.80;;;;;;;12.83;81.23;99891.75;1086557;39;20347;-78
2022/10/23 01:11:54;;;;;;;6.82;3.00;;;;;;;12.83;80.99;99889.06;1085547;54;20049;-79
2022/10/23 01:13:06;;;;;;;5.60;2.65;;;;;;;12.82;81.38;99897.25;1085904;54;20039;-78
2022/10/23 01:14:21;;;;;;;5.47;3.03;;;;;;;12.79;81.05;99899.28;1086010;54;20046;-78
2022/10/23 01:15:28;;;;;;;6.05;3.20;;;;;;;12.79;81.13;99901.13;1085756;54;20050;-78
2022/10/23 01:16:39;;;;;;;5.97;2.78;;;;;;;12.75;81.69;99897.09;1085940;54;20046;-78
2022/10/23 01:17:44;;;;;;;5.82;3.20;;;;;;;12.78;81.31;99896.75;1085848;54;20303;-79
2022/10/23 01:18:55;;;;;;;8.30;2.63;;;;;;;12.81;80.88;99901.78;1086290;39;20459;-79
2022/10/23 01:20:11;;;;;;;5.68;2.80;;;;;;;12.80;80.83;99887.53;1086061;54;20058;-79
2022/10/23 01:21:20;;;;;;;6.13;2.78;;;;;;;12.83;80.89;99893.56;1085739;54;20094;-78
2022/10/23 01:22:41;;;;;;;4.97;2.70;;;;;;;12.84;80.75;99888.06;1085988;54;20058;-80
2022/10/23 01:24:14;;;;;;;5.03;2.40;;;;;;;12.80;80.69;99884.03;1085693;54;20041;-79
2022/10/23 01:25:28;;;;;;;5.88;2.80;;;;;;;12.75;80.67;99881.00;1085988;54;20073;-79
2022/10/23 01:26:51;;;;;;;7.82;2.70;;;;;;;12.65;80.85;99881.13;1086070;54;20049;-78
2022/10/23 01:28:00;;;;;;;6.65;2.58;;;;;;;12.61;81.30;99875.25;1085932;54;20069;-78
2022/10/23 01:29:11;;;;;;;7.30;3.00;;;;;;;12.58;81.61;99872.88;1086014;54;20061;-78
2022/10/23 01:30:16;;;;;;;7.53;2.97;;;;;;;12.54;81.92;99873.38;1085874;54;20061;-78
2022/10/23 01:31:27;;;;;;;6.32;3.13;;;;;;;12.54;81.72;99873.38;1086070;54;20038;-79
2022/10/23 01:32:37;;;;;;;8.05;2.90;;;;;;;12.54;81.84;99868.84;1085658;54;20068;-78
2022/10/23 01:33:43;;;;;;;7.85;3.38;;;;;;;12.56;81.69;99866.00;1086094;54;20117;-79
2022/10/23 01:34:52;;;;;;;6.88;2.85;;;;;;;12.53;82.00;99872.53;1086063;47;20119;-78
2022/10/23 01:36:01;;;;;;;6.70;3.25;;;;;;;12.45;82.41;99876.00;1086703;31;20578;-77
2022/10/23 01:37:06;;;;;;;8.98;3.13;;;;;;;12.50;82.32;99875.53;1086007;54;20039;-79
2022/10/23 01:38:12;;;;;;;6.05;2.65;;;;;;;12.54;81.93;99868.84;1085943;54;20054;-78
2022/10/23 01:39:23;;;;;;;5.93;2.92;;;;;;;12.55;81.89;99870.53;1086151;54;20090;-78
2022/10/23 01:40:32;;;;;;;5.70;2.95;;;;;;;12.54;82.13;99868.84;1085967;54;20043;-78
2022/10/23 01:41:42;;;;;;;5.75;2.85;;;;;;;12.59;81.76;99863.84;1086228;54;20039;-78
2022/10/23 01:42:48;;;;;;;6.82;2.60;;;;;;;12.63;81.64;99869.72;1085886;54;20567;-80
2022/10/23 01:43:58;;;;;;;4.78;2.70;;;;;;;12.64;81.71;99866.88;1086212;54;20042;-78
2022/10/23 01:45:05;;;;;;;5.35;2.90;;;;;;;12.57;81.92;99873.88;1089382;31;20677;-78
2022/10/23 01:46:14;;;;;;;6.38;3.00;;;;;;;12.61;81.53;99871.75;1088080;39;20997;-79
2022/10/23 01:47:19;;;;;;;6.95;3.10;;;;;;;12.63;81.75;99883.97;1086131;54;20062;-80
2022/10/23 01:48:28;;;;;;;4.80;2.83;;;;;;;12.65;81.38;99881.13;1086383;54;20102;-77
2022/10/23 01:49:31;;;;;;;6.65;2.63;;;;;;;12.64;81.73;99882.97;1086308;54;20038;-80
2022/10/23 01:50:37;;;;;;;5.68;2.70;;;;;;;12.60;81.62;99878.09;1086026;54;20035;-78
2022/10/23 01:51:42;;;;;;;6.13;3.22;;;;;;;12.63;81.46;99872.38;1086198;54;20050;-78
2022/10/23 01:52:46;;;;;;;7.78;3.55;;;;;;;12.57;81.79;99878.41;1086286;54;20042;-78
2022/10/23 01:53:50;;;;;;;6.13;3.22;;;;;;;12.60;81.51;99873.56;1086181;54;20043;-78
2022/10/23 01:55:00;;;;;;;4.63;2.85;;;;;;;12.66;81.62;99876.63;1086260;54;20034;-78
2022/10/23 01:56:06;;;;;;;6.65;2.70;;;;;;;12.64;81.39;99874.94;1086154;54;20034;-77
2022/10/23 01:57:12;;;;;;;7.07;3.15;;;;;;;12.68;81.30;99874.59;1085972;54;20099;-77
2022/10/23 01:58:15;;;;;;;4.97;2.60;;;;;;;12.68;81.26;99882.63;1087110;54;20670;-79
2022/10/23 01:59:28;;;;;;;7.05;2.63;;;;;;;12.67;80.97;99870.22;1087306;54;20037;-77
2022/10/23 02:00:30;;;;;;;6.00;2.90;;;;;;;12.66;81.26;99877.44;1087298;54;20082;-76
2022/10/23 02:01:35;;;;;;;8.38;3.20;;;;;;;12.57;81.47;99884.59;1087267;54;20042;-78
2022/10/23 02:02:39;;;;;;;5.68;2.88;;;;;;;12.56;81.68;99872.22;1087283;54;20073;-78
2022/10/23 02:03:45;;;;;;;7.45;2.70;;;;;;;12.53;81.49;99875.22;1088979;31;20753;-77
2022/10/23 02:04:52;;;;;;;6.45;3.20;;;;;;;12.52;81.82;99872.69;1087302;54;20737;-77
2022/10/23 02:05:56;;;;;;;7.60;3.40;;;;;;;12.48;81.55;99867.66;1087536;54;20760;-78
2022/10/23 02:06:58;;;;;;;5.93;3.03;;;;;;;12.48;81.62;99870.34;1087733;54;20046;-77
2022/10/23 02:08:02;;;;;;;4.90;2.70;;;;;;;12.48;81.70;99872.16;1087546;54;20034;-77
2022/10/23 02:09:06;;;;;;;5.45;2.72;;;;;;;12.52;81.62;99870.84;1089081;39;20649;-79
2022/10/23 02:10:12;;;;;;;7.13;2.88;;;;;;;12.52;81.44;99865.50;1087630;54;20042;-77
2022/10/23 02:11:16;;;;;;;5.53;2.88;;;;;;;12.54;81.61;99863.50;1087561;54;20030;-77
2022/10/23 02:12:31;;;;;;;5.97;2.45;;;;;;;12.53;81.04;99863.63;1087267;54;20887;-77
2022/10/23 02:13:38;;;;;;;10.60;3.05;;;;;;;12.50;81.55;99867.50;1087662;54;20812;-78
2022/10/23 02:14:50;;;;;;;4.65;2.53;;;;;;;12.47;81.55;99860.63;1087657;54;20030;-78
2022/10/23 02:16:00;;;;;;;5.15;2.38;;;;;;;12.48;80.99;99864.97;1089047;39;21139;-78
2022/10/23 02:17:11;;;;;;;4.03;2.30;;;;;;;12.51;81.36;99862.97;1087591;54;20030;-77
2022/10/23 02:18:17;;;;;;;5.63;2.85;;;;;;;12.51;81.21;99869.16;1087512;54;20039;-77
2022/10/23 02:19:30;;;;;;;5.82;2.35;;;;;;;12.50;81.24;99872.03;1087655;54;20030;-77
2022/10/23 02:20:37;;;;;;;4.43;2.50;;;;;;;12.46;81.51;99863.47;1087184;54;20077;-79
2022/10/23 02:21:51;;;;;;;7.68;2.88;;;;;;;12.42;81.72;99857.56;1086536;54;20044;-77
2022/10/23 02:22:59;;;;;;;4.97;2.60;;;;;;;12.38;81.63;99866.09;1086624;54;20054;-78
2022/10/23 02:24:06;;;;;;;5.75;2.70;;;;;;;12.35;81.89;99853.84;1087144;54;20061;-78
2022/10/23 02:25:12;;;;;;;5.70;2.60;;;;;;;12.36;81.92;99854.72;1087075;54;20071;-79
2022/10/23 02:26:19;;;;;;;6.47;2.78;;;;;;;12.33;81.96;99843.31;1086989;54;20046;-79
2022/10/23 02:27:25;;;;;;;5.20;2.40;;;;;;;12.32;82.00;99843.47;1086599;54;20062;-78
2022/10/23 02:28:34;;;;;;;7.13;2.97;;;;;;;12.30;81.72;99840.94;1086658;54;20031;-79
2022/10/23 02:29:43;;;;;;;5.07;2.72;;;;;;;12.27;82.26;99835.91;1086642;54;20054;-79
2022/10/23 02:30:50;;;;;;;6.10;3.13;;;;;;;12.23;82.09;99834.53;1087139;46;20040;-77
2022/10/23 02:31:52;;;;;;;5.13;2.60;;;;;;;12.14;82.48;99838.19;1086392;54;20058;-77
2022/10/23 02:32:57;;;;;;;5.68;2.78;;;;;;;12.16;82.18;99833.50;1086393;54;20038;-79
2022/10/23 02:33:59;;;;;;;5.03;2.50;;;;;;;12.11;82.65;99836.69;1086430;54;20042;-78
2022/10/23 02:35:04;;;;;;;6.50;2.80;;;;;;;12.10;82.82;99839.50;1086539;54;20041;-78
2022/10/23 02:36:06;;;;;;;5.68;2.47;;;;;;;12.06;82.88;99832.78;1087055;31;20580;-77
2022/10/23 02:37:10;;;;;;;5.90;2.83;;;;;;;12.04;82.72;99841.00;1086651;54;20047;-77
2022/10/23 02:38:30;;;;;;;7.30;3.13;;;;;;;11.96;82.93;99830.19;1087442;39;20644;-79
2022/10/23 02:39:35;;;;;;;7.97;3.03;;;;;;;11.99;82.99;99830.75;1086567;54;20045;-78
2022/10/23 02:40:42;;;;;;;9.60;3.70;;;;;;;12.01;82.68;99833.28;1086555;54;20042;-79
2022/10/23 02:41:52;;;;;;;6.57;3.08;;;;;;;12.00;82.80;99835.09;1086575;54;20588;-78
2022/10/23 02:42:57;;;;;;;8.23;3.35;;;;;;;11.97;82.74;99834.53;1086597;54;20050;-79
2022/10/23 02:44:12;;;;;;;5.03;2.88;;;;;;;12.00;82.71;99842.31;1087640;46;20039;-78
2022/10/23 02:45:23;;;;;;;5.55;3.10;;;;;;;12.02;82.59;99851.84;1086593;54;20061;-78
2022/10/23 02:46:33;;;;;;;6.07;3.03;;;;;;;12.04;82.53;99842.81;1086698;54;20038;-78
2022/10/23 02:47:45;;;;;;;6.65;3.15;;;;;;;12.04;82.44;99840.16;1087296;31;20556;-79
2022/10/23 02:49:00;;;;;;;4.65;2.55;;;;;;;12.07;82.08;99840.66;1086526;54;20037;-79
2022/10/23 02:50:09;;;;;;;4.70;2.60;;;;;;;12.12;82.26;99837.50;1086738;54;20042;-78
2022/10/23 02:51:19;;;;;;;5.57;3.08;;;;;;;12.14;81.88;99833.66;1086471;54;20659;-77
2022/10/23 02:52:31;;;;;;;5.65;3.13;;;;;;;12.07;82.19;99837.16;1086510;54;20034;-78
2022/10/23 02:53:41;;;;;;;6.70;2.97;;;;;;;12.05;81.92;99826.56;1088465;39;20572;-78
2022/10/23 02:54:57;;;;;;;5.60;3.05;;;;;;;12.08;81.79;99826.28;1086380;54;20130;-79
2022/10/23 02:56:06;;;;;;;6.03;2.88;;;;;;;12.12;81.95;99821.44;1087179;31;20592;-79
2022/10/23 02:57:18;;;;;;;6.63;3.05;;;;;;;12.15;81.45;99823.78;1089976;31;20666;-78
2022/10/23 02:58:29;;;;;;;5.65;2.75;;;;;;;12.11;81.61;99820.59;1087033;46;20125;-79
2022/10/23 02:59:36;;;;;;;7.18;3.63;;;;;;;12.12;81.56;99818.75;1086885;54;20046;-78
2022/10/23 03:00:48;;;;;;;7.45;2.97;;;;;;;12.14;81.62;99808.72;1087570;54;20042;-77
2022/10/23 03:01:52;;;;;;;4.65;2.45;;;;;;;12.15;81.46;99813.06;1087567;54;20107;-78
2022/10/23 03:02:59;;;;;;;5.38;2.63;;;;;;;12.16;81.57;99814.75;1087496;54;20041;-77
2022/10/23 03:04:04;;;;;;;6.28;2.65;;;;;;;12.19;81.18;99809.06;1087509;54;20057;-78
2022/10/23 03:05:12;;;;;;;4.13;2.25;;;;;;;12.21;81.17;99809.75;1087490;54;20623;-78
2022/10/23 03:06:15;;;;;;;5.50;2.55;;;;;;;12.21;80.98;99812.41;1087460;54;20066;-79
2022/10/23 03:07:21;;;;;;;6.03;2.97;;;;;;;12.13;81.26;99810.56;1087477;54;20042;-78
2022/10/23 03:08:26;;;;;;;5.68;2.72;;;;;;;12.15;81.25;99810.41;1087453;54;20761;-78
2022/10/23 03:09:28;;;;;;;6.00;2.80;;;;;;;12.14;81.22;99808.72;1087477;54;20030;-79
2022/10/23 03:10:33;;;;;;;5.13;2.40;;;;;;;12.14;81.28;99809.53;1087412;54;20041;-79
2022/10/23 03:11:34;;;;;;;5.40;2.65;;;;;;;12.17;81.32;99805.72;1087495;54;20564;-79
2022/10/23 03:12:39;;;;;;;5.68;2.95;;;;;;;12.09;81.44;99805.69;1087202;46;20030;-79
2022/10/23 03:13:43;;;;;;;5.18;2.60;;;;;;;12.06;81.62;99801.47;1087462;54;20030;-77
2022/10/23 03:14:44;;;;;;;5.03;2.50;;;;;;;12.10;81.39;99810.03;1087449;54;20667;-77
2022/10/23 03:15:51;;;;;;;6.00;2.50;;;;;;;12.12;81.74;99810.72;1087839;46;20035;-78
2022/10/23 03:16:53;;;;;;;7.78;2.30;;;;;;;12.15;81.65;99807.72;1087464;54;20042;-78
2022/10/23 03:17:57;;;;;;;4.18;2.13;;;;;;;12.18;81.51;99804.72;1087258;54;20058;-78
2022/10/23 03:18:59;;;;;;;4.68;2.28;;;;;;;12.19;81.32;99809.06;1087485;54;20042;-78
2022/10/23 03:20:03;;;;;;;4.57;2.47;;;;;;;12.21;81.30;99800.88;1086804;54;20042;-78
2022/10/23 03:21:04;;;;;;;4.68;2.63;;;;;;;12.22;81.31;99806.06;1087019;54;20027;-78
2022/10/23 03:22:08;;;;;;;5.38;2.60;;;;;;;12.24;80.93;99808.56;1087143;54;20061;-81
2022/10/23 03:23:12;;;;;;;4.05;2.13;;;;;;;12.25;81.17;99803.06;1086968;54;20042;-79
2022/10/23 03:24:16;;;;;;;4.32;2.53;;;;;;;12.20;81.34;99802.69;1087282;54;20089;-80
2022/10/23 03:25:17;;;;;;;7.00;2.78;;;;;;;12.21;81.30;99796.34;1087077;54;20686;-79
2022/10/23 03:26:21;;;;;;;5.32;2.30;;;;;;;12.22;81.38;99789.97;1087145;54;20026;-79
2022/10/23 03:27:23;;;;;;;5.15;2.75;;;;;;;12.18;81.10;99794.00;1087199;54;20773;-79
2022/10/23 03:28:27;;;;;;;5.78;2.55;;;;;;;12.18;81.12;99796.69;1087080;54;20050;-79
2022/10/23 03:29:29;;;;;;;4.20;2.30;;;;;;;12.22;81.32;99794.53;1089423;31;20671;-78
2022/10/23 03:30:33;;;;;;;6.75;2.88;;;;;;;12.19;80.96;99798.34;1086935;54;20061;-78
2022/10/23 03:31:37;;;;;;;4.15;2.17;;;;;;;12.17;81.25;99793.16;1088215;46;20077;-78
2022/10/23 03:32:41;;;;;;;5.10;2.25;;;;;;;12.19;80.96;99798.34;1087228;54;20700;-79
2022/10/23 03:33:42;;;;;;;7.22;3.38;;;;;;;12.16;81.04;99796.00;1087081;54;20046;-79
2022/10/23 03:34:47;;;;;;;5.68;2.60;;;;;;;12.14;81.26;99798.81;1087540;39;20879;-79
2022/10/23 03:35:49;;;;;;;5.28;2.47;;;;;;;12.15;81.28;99794.31;1087449;39;20902;-78
2022/10/23 03:36:53;;;;;;;4.55;2.40;;;;;;;12.16;81.42;99788.78;1087126;54;20045;-79
2022/10/23 03:37:54;;;;;;;6.55;2.67;;;;;;;12.13;81.13;99796.31;1089986;39;20239;-78
2022/10/23 03:38:59;;;;;;;7.75;2.83;;;;;;;12.07;81.52;99799.66;1087152;54;20034;-79
2022/10/23 03:40:03;;;;;;;6.35;3.05;;;;;;;12.07;81.44;99791.59;1087132;54;20042;-78
2022/10/23 03:41:05;;;;;;;8.02;3.47;;;;;;;12.11;81.58;99798.31;1086921;54;20061;-79
2022/10/23 03:42:09;;;;;;;6.72;2.80;;;;;;;12.08;81.62;99788.75;1089257;39;20926;-79
2022/10/23 03:43:13;;;;;;;4.90;2.67;;;;;;;12.10;81.34;99789.44;1086846;54;20089;-78
2022/10/23 03:44:15;;;;;;;5.35;2.90;;;;;;;12.08;81.51;99787.94;1087106;54;20089;-78
2022/10/23 03:45:19;;;;;;;10.18;3.13;;;;;;;12.05;81.46;99790.91;1087199;54;20090;-79
2022/10/23 03:46:20;;;;;;;5.05;2.70;;;;;;;12.06;81.72;99789.94;1087074;54;20061;-79
2022/10/23 03:47:29;;;;;;;5.90;3.22;;;;;;;12.04;82.12;99802.63;1087104;54;20670;-79
2022/10/23 03:48:31;;;;;;;5.15;2.60;;;;;;;12.05;81.76;99790.91;1086960;54;20046;-79
2022/10/23 03:49:35;;;;;;;4.63;2.40;;;;;;;12.04;81.33;99786.56;1086998;54;20098;-79
2022/10/23 03:50:37;;;;;;;4.97;2.63;;;;;;;12.01;81.91;99785.06;1087908;31;20650;-79
2022/10/23 03:51:41;;;;;;;5.90;2.58;;;;;;;12.04;81.57;99791.91;1089260;39;20452;-79
2022/10/23 03:52:43;;;;;;;6.75;2.40;;;;;;;12.07;81.30;99788.94;1088790;39;20733;-77
2022/10/23 03:53:47;;;;;;;7.00;2.72;;;;;;;12.06;81.24;99793.44;1089311;39;20517;-81
2022/10/23 03:54:48;;;;;;;5.00;2.40;;;;;;;12.08;81.31;99787.94;1093500;31;20681;-77
2022/10/23 03:55:52;;;;;;;6.07;2.47;;;;;;;12.10;81.43;99788.59;1087459;54;20030;-78
2022/10/23 03:56:54;;;;;;;4.28;2.38;;;;;;;12.12;81.49;99789.28;1090769;31;20556;-79
2022/10/23 03:57:58;;;;;;;4.80;2.75;;;;;;;12.16;81.10;99796.81;1087263;54;20037;-77
2022/10/23 03:59:00;;;;;;;4.80;2.50;;;;;;;12.11;81.12;99792.94;1087398;54;20065;-76
2022/10/23 04:00:05;;;;;;;4.80;2.70;;;;;;;12.12;81.06;99797.31;1087551;54;20718;-77
2022/10/23 04:01:07;;;;;;;6.40;2.75;;;;;;;12.06;81.16;99790.75;1086711;54;20050;-79
2022/10/23 04:02:12;;;;;;;4.63;2.42;;;;;;;12.11;81.38;99788.44;1087084;54;20034;-79
2022/10/23 04:03:16;;;;;;;5.03;2.45;;;;;;;12.09;81.01;99784.25;1086674;54;20070;-77
2022/10/23 04:04:24;;;;;;;3.83;2.15;;;;;;;12.10;81.03;99791.25;1087694;54;20054;-79
2022/10/23 04:05:27;;;;;;;6.30;2.47;;;;;;;12.05;80.94;99786.38;1087758;54;20036;-78
2022/10/23 04:06:42;;;;;;;4.38;2.47;;;;;;;12.07;81.20;99783.56;1087753;54;20034;-77
2022/10/23 04:07:48;;;;;;;4.72;2.30;;;;;;;12.02;81.06;99794.78;1087672;54;20059;-77
2022/10/23 04:08:53;;;;;;;5.32;2.53;;;;;;;12.03;81.12;99785.72;1087718;47;20018;-78
2022/10/23 04:10:00;;;;;;;4.18;2.10;;;;;;;12.04;81.25;99791.91;1089145;46;20049;-77
2022/10/23 04:11:04;;;;;;;7.03;2.67;;;;;;;12.01;80.89;99793.91;1087488;54;20051;-77
2022/10/23 04:12:11;;;;;;;4.95;2.35;;;;;;;11.98;81.10;99788.91;1087870;39;20657;-77
2022/10/23 04:13:15;;;;;;;5.30;2.10;;;;;;;11.95;81.25;99797.22;1086738;54;21481;-77
2022/10/23 04:14:23;;;;;;;4.93;2.03;;;;;;;11.96;81.15;99793.53;1087433;54;20041;-77
2022/10/23 04:15:27;;;;;;;4.70;2.20;;;;;;;11.99;81.21;99798.63;1086820;54;20669;-77
2022/10/23 04:16:34;;;;;;;4.80;2.40;;;;;;;11.96;80.89;99803.41;1087415;54;20030;-77
2022/10/23 04:17:41;;;;;;;5.53;2.88;;;;;;;11.90;81.01;99796.88;1087449;54;20034;-77
2022/10/23 04:18:50;;;;;;;5.70;2.30;;;;;;;11.89;81.21;99789.81;1087395;54;20035;-77
2022/10/23 04:19:57;;;;;;;4.50;2.17;;;;;;;11.84;81.47;99792.97;1087349;54;20042;-77
2022/10/23 04:21:05;;;;;;;5.45;2.42;;;;;;;11.85;81.39;99793.81;1087511;54;20045;-77
2022/10/23 04:22:13;;;;;;;4.53;2.17;;;;;;;11.84;81.31;99794.81;1087425;54;20058;-77
2022/10/23 04:23:19;;;;;;;5.80;2.08;;;;;;;11.85;81.23;99799.16;1087331;54;20031;-78
2022/10/23 04:24:27;;;;;;;5.95;2.25;;;;;;;11.85;81.33;99793.81;1087397;54;20031;-77
2022/10/23 04:25:39;;;;;;;5.78;2.22;;;;;;;11.85;81.54;99793.81;1087411;54;21106;-77
2022/10/23 04:26:48;;;;;;;5.25;2.53;;;;;;;11.85;81.33;99794.63;1086924;54;20038;-77
2022/10/23 04:27:52;;;;;;;5.07;2.10;;;;;;;11.87;81.36;99802.53;1087117;54;20031;-77
2022/10/23 04:29:06;;;;;;;4.88;2.53;;;;;;;11.86;81.30;99796.31;1087382;54;20018;-77
2022/10/23 04:30:13;;;;;;;5.55;2.65;;;;;;;11.85;81.37;99793.81;1089763;31;20669;-79
2022/10/23 04:31:21;;;;;;;3.80;2.10;;;;;;;11.85;81.17;99799.16;1087364;54;20027;-79
2022/10/23 04:32:23;;;;;;;5.22;2.47;;;;;;;11.88;80.95;99803.34;1087277;54;20035;-78
2022/10/23 04:33:28;;;;;;;3.95;2.33;;;;;;;11.87;80.85;99797.16;1086192;54;20033;-79
2022/10/23 04:34:34;;;;;;;5.78;2.10;;;;;;;11.90;81.22;99802.22;1086135;54;20043;-78
2022/10/23 04:35:39;;;;;;;4.47;2.20;;;;;;;11.91;80.90;99801.19;1086005;54;20062;-79
2022/10/23 04:36:42;;;;;;;4.80;2.47;;;;;;;11.89;81.32;99800.53;1086354;54;20061;-78
2022/10/23 04:37:47;;;;;;;5.18;2.28;;;;;;;11.85;81.00;99799.16;1087215;39;20492;-78
2022/10/23 04:38:52;;;;;;;4.63;2.30;;;;;;;11.84;81.24;99797.47;1086297;54;20031;-78
2022/10/23 04:39:59;;;;;;;4.50;2.60;;;;;;;11.82;81.36;99791.44;1086048;54;20654;-78
2022/10/23 04:41:03;;;;;;;4.03;2.08;;;;;;;11.83;81.34;99796.66;1086070;54;20126;-78
2022/10/23 04:42:05;;;;;;;6.53;2.67;;;;;;;11.86;80.95;99784.78;1086237;54;20090;-78
2022/10/23 04:43:09;;;;;;;5.60;2.45;;;;;;;11.88;81.02;99795.31;1086075;54;20038;-78
2022/10/23 04:44:11;;;;;;;5.75;2.22;;;;;;;11.88;81.03;99790.81;1086626;46;20107;-77
2022/10/23 04:45:15;;;;;;;4.05;1.95;;;;;;;11.91;80.98;99786.97;1086179;54;20043;-78
2022/10/23 04:46:17;;;;;;;3.75;2.05;;;;;;;11.89;80.83;99795.19;1086709;54;20042;-79
2022/10/23 04:47:21;;;;;;;4.88;2.67;;;;;;;11.87;81.04;99786.47;1087365;54;20035;-78
2022/10/23 04:48:22;;;;;;;4.47;2.20;;;;;;;11.82;81.34;99791.44;1088252;39;20567;-78
2022/10/23 04:49:26;;;;;;;5.72;2.30;;;;;;;11.81;81.27;99785.25;1087286;54;20034;-78
2022/10/23 04:50:31;;;;;;;7.47;2.60;;;;;;;11.80;81.50;99780.88;1087188;54;20034;-79
2022/10/23 04:51:35;;;;;;;4.78;2.30;;;;;;;11.83;81.24;99780.59;1087256;54;20117;-78
2022/10/23 04:52:36;;;;;;;6.03;2.15;;;;;;;11.85;81.35;99783.09;1087259;54;20045;-78
2022/10/23 04:53:40;;;;;;;3.78;2.10;;;;;;;11.88;81.01;99782.78;1087249;54;20610;-78
2022/10/23 04:54:42;;;;;;;5.07;2.42;;;;;;;11.90;81.18;99786.16;1087301;54;20707;-78
2022/10/23 04:55:51;;;;;;;4.30;2.10;;;;;;;11.86;81.08;99790.13;1087317;54;20046;-76
2022/10/23 04:56:52;;;;;;;4.45;2.22;;;;;;;11.88;81.08;99781.94;1089032;31;20655;-79
2022/10/23 04:57:56;;;;;;;5.70;2.30;;;;;;;11.86;81.42;99788.28;1087315;54;20041;-77
2022/10/23 04:58:58;;;;;;;5.45;2.40;;;;;;;11.87;81.04;99783.78;1087392;54;20054;-77
2022/10/23 05:00:02;;;;;;;5.70;2.22;;;;;;;11.89;81.14;99784.47;1092591;31;20652;-77
2022/10/23 05:01:06;;;;;;;5.18;1.95;;;;;;;11.90;81.21;99775.44;1087323;54;20021;-77
2022/10/23 05:02:10;;;;;;;4.63;2.05;;;;;;;11.89;81.00;99784.47;1087365;54;20083;-76
2022/10/23 05:03:12;;;;;;;6.57;2.45;;;;;;;11.80;81.43;99782.75;1087286;54;20060;-77
2022/10/23 05:04:16;;;;;;;4.80;2.50;;;;;;;11.70;81.88;99785.53;1086381;54;20050;-77
2022/10/23 05:05:17;;;;;;;12.70;3.38;;;;;;;11.58;82.52;99782.28;1086317;54;20553;-78
2022/10/23 05:06:24;;;;;;;4.88;2.88;;;;;;;11.56;82.54;99784.25;1086424;39;20516;-78
2022/10/23 05:07:25;;;;;;;5.47;3.05;;;;;;;11.62;82.20;99783.63;1086240;54;20039;-79
2022/10/23 05:08:30;;;;;;;7.32;3.17;;;;;;;11.69;81.99;99776.66;1087201;54;20036;-80
2022/10/23 05:09:31;;;;;;;6.72;3.03;;;;;;;11.76;81.85;99776.00;1087248;54;20054;-78
2022/10/23 05:10:36;;;;;;;6.10;3.08;;;;;;;11.76;81.67;99779.53;1087349;54;20065;-78